Time;durP1;ratioP1;P1;durP2;ratioP2;P2;SDS_P1;SDS_P2;PMS_P1;PMS_P2;Temp;Humidity;BMP_temperature;BMP_pressure;BME280_temperature;BME280_humidity;BME280_pressure;Samples;Min_cycle;Max_cycle;Signal;HPM_P1;HPM_P2
2023/04/18 00:00:19;;;;;;;12.83;11.47;;;;;;;9.55;74.56;97854.41;6269269;28;20224;-44
2023/04/18 00:03:22;;;;;;;13.73;11.10;;;;;;;9.54;74.81;97852.00;6286191;28;20308;-47
2023/04/18 00:06:25;;;;;;;13.63;12.10;;;;;;;9.49;74.61;97843.91;6293220;28;20237;-45
2023/04/18 00:09:27;;;;;;;14.00;12.30;;;;;;;9.45;75.26;97850.72;6293776;28;20226;-45
2023/04/18 00:12:30;;;;;;;14.30;12.60;;;;;;;9.60;74.70;97847.59;6291143;28;20227;-44
2023/04/18 00:15:34;;;;;;;14.97;11.23;;;;;;;9.53;74.54;97850.38;6292399;28;20315;-48
2023/04/18 00:18:36;;;;;;;13.90;12.40;;;;;;;9.49;74.69;97851.88;6289576;28;20578;-43
2023/04/18 00:21:43;;;;;;;13.67;11.60;;;;;;;9.45;74.54;97842.75;6292658;28;20368;-47
2023/04/18 00:24:46;;;;;;;13.30;11.90;;;;;;;9.46;74.79;97852.34;6293576;28;20634;-44
2023/04/18 00:27:48;;;;;;;13.50;11.87;;;;;;;9.43;75.38;97852.81;6292413;28;20228;-45
2023/04/18 00:30:51;;;;;;;13.23;11.03;;;;;;;9.42;75.71;97851.19;6291971;28;20261;-46
2023/04/18 00:33:53;;;;;;;13.93;11.13;;;;;;;9.43;75.42;97850.16;6273846;28;20621;-44
2023/04/18 00:36:57;;;;;;;12.77;11.17;;;;;;;9.45;75.04;97850.72;6297655;28;20229;-48
2023/04/18 00:39:59;;;;;;;13.07;10.83;;;;;;;9.36;75.49;97844.13;6276284;28;20320;-45
2023/04/18 00:43:01;;;;;;;12.83;11.07;;;;;;;9.40;75.20;97845.28;6293742;28;20236;-43
2023/04/18 00:46:03;;;;;;;12.60;11.23;;;;;;;9.37;75.20;97851.88;6278869;28;20234;-45
2023/04/18 00:49:06;;;;;;;13.17;10.80;;;;;;;9.50;74.57;97842.84;6295817;28;20240;-46
2023/04/18 00:52:10;;;;;;;13.90;10.83;;;;;;;9.40;75.10;97847.94;6297261;28;20238;-48
2023/04/18 00:55:15;;;;;;;10.93;9.83;;;;;;;9.37;74.96;97840.44;6287994;28;20237;-44
2023/04/18 00:58:17;;;;;;;12.00;10.30;;;;;;;9.31;75.50;97850.16;6292658;28;20339;-44
2023/04/18 01:01:19;;;;;;;13.70;11.87;;;;;;;9.34;75.30;97854.19;6292467;28;20398;-46
2023/04/18 01:04:21;;;;;;;12.67;10.33;;;;;;;9.23;76.06;97845.97;6291777;28;20780;-46
2023/04/18 01:07:25;;;;;;;13.33;11.00;;;;;;;9.17;75.33;97822.16;6291047;28;20229;-44
2023/04/18 01:10:30;;;;;;;12.97;11.33;;;;;;;9.30;75.29;97849.31;6291454;28;20250;-44
2023/04/18 01:13:32;;;;;;;12.73;10.00;;;;;;;9.26;75.80;97848.19;6290578;28;20678;-44
2023/04/18 01:16:37;;;;;;;12.37;9.90;;;;;;;9.30;75.52;97851.16;6273911;28;20234;-48
2023/04/18 01:19:39;;;;;;;12.30;10.67;;;;;;;9.25;75.84;97851.84;6292389;28;20239;-44
2023/04/18 01:22:42;;;;;;;12.83;10.43;;;;;;;9.25;75.63;97851.84;6273469;28;20377;-45
2023/04/18 01:25:45;;;;;;;11.73;9.97;;;;;;;9.26;75.19;97845.50;6292426;28;20226;-45
2023/04/18 01:28:47;;;;;;;12.83;10.40;;;;;;;9.27;75.09;97849.78;6272189;28;20705;-43
2023/04/18 01:31:49;;;;;;;10.77;9.67;;;;;;;9.22;75.13;97847.00;6287328;28;20264;-46
2023/04/18 01:34:51;;;;;;;9.97;8.77;;;;;;;9.23;75.79;97850.47;6280076;28;20647;-43
2023/04/18 01:37:54;;;;;;;12.63;9.37;;;;;;;9.20;76.12;97846.41;6290945;28;20261;-43
2023/04/18 01:40:56;;;;;;;12.73;9.80;;;;;;;9.18;75.99;97845.03;6291604;28;20705;-43
2023/04/18 01:43:58;;;;;;;11.67;10.10;;;;;;;8.98;75.90;97818.75;6291712;28;20318;-44
2023/04/18 01:47:01;;;;;;;12.53;11.17;;;;;;;9.15;76.37;97848.94;6291248;28;20236;-44
2023/04/18 01:50:06;;;;;;;12.03;10.50;;;;;;;9.24;75.76;97852.09;6270063;28;20308;-47
2023/04/18 01:53:08;;;;;;;12.30;11.00;;;;;;;9.04;75.43;97823.97;6291425;28;20225;-43
2023/04/18 01:56:10;;;;;;;13.37;11.33;;;;;;;9.16;76.23;97842.63;6291292;28;20707;-45
2023/04/18 01:59:12;;;;;;;12.20;10.97;;;;;;;9.19;76.22;97847.44;6273311;28;20307;-48
2023/04/18 02:02:15;;;;;;;13.37;11.97;;;;;;;9.21;75.45;97844.56;6268788;28;20237;-48
2023/04/18 02:05:17;;;;;;;12.13;10.80;;;;;;;9.12;76.64;97851.28;6270218;28;20372;-49
2023/04/18 02:08:20;;;;;;;14.27;11.83;;;;;;;9.04;76.18;97831.94;6289866;28;20234;-46
2023/04/18 02:11:22;;;;;;;14.27;10.80;;;;;;;9.05;76.53;97844.19;6290685;28;20259;-49
2023/04/18 02:14:28;;;;;;;13.20;11.73;;;;;;;9.02;76.97;97844.66;6272357;28;20714;-47
2023/04/18 02:17:35;;;;;;;12.33;11.00;;;;;;;9.02;76.77;97849.16;6290130;28;20230;-45
2023/04/18 02:20:37;;;;;;;14.20;10.97;;;;;;;8.99;77.27;97847.75;6288726;28;20834;-44
2023/04/18 02:23:39;;;;;;;11.83;10.63;;;;;;;9.22;75.88;97847.00;6290209;28;20591;-49
2023/04/18 02:26:42;;;;;;;12.67;11.20;;;;;;;9.10;75.99;97846.16;6286500;28;20221;-48
2023/04/18 02:29:44;;;;;;;13.07;11.43;;;;;;;9.03;76.83;97840.16;6288649;28;20231;-45
2023/04/18 02:32:50;;;;;;;12.23;10.77;;;;;;;9.00;76.97;97844.06;6289420;28;20242;-46
2023/04/18 02:35:52;;;;;;;12.23;10.17;;;;;;;8.97;77.09;97852.50;6288981;28;20230;-44
2023/04/18 02:38:55;;;;;;;11.20;10.00;;;;;;;9.00;77.07;97848.56;6285799;28;20232;-44
2023/04/18 02:41:57;;;;;;;12.77;10.50;;;;;;;8.98;76.89;97856.78;6290730;28;20238;-46
2023/04/18 02:44:59;;;;;;;11.93;10.73;;;;;;;9.04;76.52;97855.84;6290122;28;20491;-46
2023/04/18 02:48:01;;;;;;;10.93;9.83;;;;;;;9.06;76.53;97858.28;6266910;28;20230;-43
2023/04/18 02:51:06;;;;;;;10.80;9.70;;;;;;;9.07;76.35;97859.91;6271655;28;20238;-44
2023/04/18 02:54:10;;;;;;;9.50;8.43;;;;;;;8.98;76.47;97843.50;6272126;28;20223;-46
2023/04/18 02:57:28;;;;;;;10.17;8.30;;;;;;;9.13;76.30;97858.19;6271592;28;20235;-45
2023/04/18 03:00:36;;;;;;;10.00;8.83;;;;;;;9.06;76.69;97863.59;6269108;28;20240;-44
2023/04/18 03:03:58;;;;;;;9.63;8.57;;;;;;;9.04;76.85;97857.72;6274615;28;20233;-46
2023/04/18 03:07:08;;;;;;;8.90;7.87;;;;;;;9.03;76.45;97853.44;6272856;28;20234;-47
2023/04/18 03:10:12;;;;;;;9.37;7.47;;;;;;;9.01;76.67;97855.50;6271590;28;20240;-46
2023/04/18 03:13:16;;;;;;;7.77;6.97;;;;;;;9.02;76.67;97855.28;6272282;28;20654;-44
2023/04/18 03:16:18;;;;;;;8.27;7.47;;;;;;;9.02;76.70;97859.78;6272887;28;20311;-49
2023/04/18 03:19:22;;;;;;;9.47;7.33;;;;;;;9.08;76.19;97850.09;6276827;28;20238;-43
2023/04/18 03:22:26;;;;;;;8.70;7.17;;;;;;;9.05;76.00;97851.34;6276251;28;20261;-46
2023/04/18 03:25:33;;;;;;;10.30;7.07;;;;;;;9.09;75.90;97846.41;6291738;28;20245;-44
2023/04/18 03:28:36;;;;;;;6.87;6.17;;;;;;;9.05;76.50;97849.50;6271187;28;20262;-46
2023/04/18 03:31:40;;;;;;;8.00;6.37;;;;;;;9.07;76.33;97845.81;6294199;28;20301;-47
2023/04/18 03:34:42;;;;;;;8.37;6.37;;;;;;;9.07;76.58;97857.25;6311394;28;20230;-45
2023/04/18 03:37:45;;;;;;;6.23;5.63;;;;;;;9.06;76.51;97852.97;6294428;28;20317;-45
2023/04/18 03:40:54;;;;;;;6.87;5.27;;;;;;;9.01;76.30;97860.81;6275972;28;20710;-48
2023/04/18 03:44:04;;;;;;;6.00;5.43;;;;;;;9.00;76.15;97853.88;6290444;28;20233;-45
2023/04/18 03:47:10;;;;;;;7.10;6.00;;;;;;;9.05;76.49;97861.97;6275016;28;20238;-45
2023/04/18 03:50:15;;;;;;;6.77;5.67;;;;;;;9.08;76.36;97860.72;6275764;28;20231;-44
2023/04/18 03:53:19;;;;;;;5.83;5.20;;;;;;;9.06;76.38;97852.97;6276213;28;20235;-48
2023/04/18 03:56:22;;;;;;;6.57;5.43;;;;;;;9.11;75.80;97862.91;6306606;28;20226;-44
2023/04/18 03:59:26;;;;;;;5.50;4.70;;;;;;;9.06;76.48;97860.94;6274247;28;20460;-44
2023/04/18 04:02:29;;;;;;;7.00;5.43;;;;;;;9.02;76.50;97863.25;6274550;28;20249;-46
2023/04/18 04:05:31;;;;;;;6.27;5.37;;;;;;;9.02;76.36;97865.91;6274300;28;20361;-48
2023/04/18 04:08:33;;;;;;;8.37;5.47;;;;;;;9.01;76.76;97872.28;6291851;28;20219;-48
2023/04/18 04:11:36;;;;;;;6.47;4.93;;;;;;;8.99;76.60;97869.00;6291305;28;20247;-43
2023/04/18 04:14:41;;;;;;;7.07;5.23;;;;;;;8.99;76.72;97876.97;6274977;28;20237;-45
2023/04/18 04:17:43;;;;;;;6.03;5.23;;;;;;;8.98;77.16;97878.03;6308663;28;20237;-44
2023/04/18 04:20:46;;;;;;;5.80;5.10;;;;;;;8.98;77.35;97879.88;6274730;28;20726;-44
2023/04/18 04:24:09;;;;;;;7.13;6.30;;;;;;;8.98;77.62;97878.03;6288799;28;20226;-45
2023/04/18 04:27:17;;;;;;;7.53;5.80;;;;;;;8.93;77.50;97880.56;6290239;28;20214;-47
2023/04/18 04:30:20;;;;;;;7.17;5.60;;;;;;;8.74;77.97;97855.88;6274331;28;20239;-47
2023/04/18 04:33:24;;;;;;;6.80;5.50;;;;;;;8.91;77.91;97887.13;6275039;28;20260;-44
2023/04/18 04:36:29;;;;;;;6.73;5.97;;;;;;;8.99;77.63;97878.84;6301993;28;20233;-48
2023/04/18 04:39:32;;;;;;;7.13;6.43;;;;;;;8.98;77.19;97893.97;6273269;28;20236;-48
2023/04/18 04:42:55;;;;;;;7.37;5.50;;;;;;;8.96;77.45;97889.91;6290348;28;20235;-45
2023/04/18 04:46:06;;;;;;;7.03;5.63;;;;;;;8.97;77.57;97886.22;6270033;28;20234;-43
2023/04/18 04:49:08;;;;;;;8.60;5.57;;;;;;;8.95;77.76;97886.44;6274142;28;20728;-48
2023/04/18 04:52:10;;;;;;;5.93;5.33;;;;;;;8.94;77.94;97894.66;6275048;28;20454;-45
2023/04/18 04:55:12;;;;;;;6.20;5.37;;;;;;;8.97;77.39;97895.00;6273437;28;20234;-47
2023/04/18 04:58:16;;;;;;;5.53;5.03;;;;;;;8.98;77.27;97896.63;6269481;28;20231;-48
2023/04/18 05:01:58;;;;;;;5.57;4.80;;;;;;;8.96;77.34;97888.06;6269895;28;20234;-45
2023/04/18 05:05:00;;;;;;;5.27;4.77;;;;;;;8.98;77.34;97899.28;6273541;28;20223;-48
2023/04/18 05:08:03;;;;;;;6.27;5.30;;;;;;;8.97;77.62;97896.88;6283616;28;20604;-44
2023/04/18 05:11:05;;;;;;;6.20;5.17;;;;;;;8.96;77.64;97903.19;6292027;28;20223;-45
2023/04/18 05:14:07;;;;;;;5.70;5.10;;;;;;;8.97;77.50;97899.53;6291675;28;20567;-47
2023/04/18 05:17:09;;;;;;;5.77;5.17;;;;;;;9.03;77.06;97903.94;6290586;28;20229;-49
2023/04/18 05:20:12;;;;;;;5.67;5.00;;;;;;;8.97;77.78;97913.63;6291661;28;20240;-48
2023/04/18 05:23:14;;;;;;;7.23;5.10;;;;;;;8.83;77.45;97909.50;6269804;28;20778;-49
2023/04/18 05:26:17;;;;;;;5.90;5.30;;;;;;;9.00;77.04;97904.38;6292085;28;20234;-49
2023/04/18 05:29:19;;;;;;;5.13;4.63;;;;;;;8.96;77.76;97908.50;6290222;28;20369;-46
2023/04/18 05:32:22;;;;;;;5.37;4.60;;;;;;;8.96;77.58;97914.63;6292026;28;20278;-44
2023/04/18 05:35:25;;;;;;;5.47;4.60;;;;;;;8.37;77.95;97825.94;6283744;28;20317;-47
2023/04/18 05:38:27;;;;;;;5.80;4.60;;;;;;;8.72;78.01;97878.41;6291213;28;20723;-46
2023/04/18 05:41:29;;;;;;;6.57;4.67;;;;;;;9.02;77.43;97912.94;6290718;28;20237;-45
2023/04/18 05:44:31;;;;;;;5.37;4.50;;;;;;;9.05;77.25;97910.63;6290939;28;20408;-47
2023/04/18 05:47:33;;;;;;;5.67;4.77;;;;;;;9.02;77.26;97911.09;6272376;28;20230;-47
2023/04/18 05:50:35;;;;;;;6.27;4.57;;;;;;;9.05;76.97;97915.13;6287025;28;20235;-46
2023/04/18 05:53:37;;;;;;;6.07;4.67;;;;;;;9.02;77.34;97905.78;6291128;28;20263;-47
2023/04/18 05:56:39;;;;;;;5.33;4.10;;;;;;;8.90;77.34;97894.28;6291539;28;20263;-47
2023/04/18 05:59:41;;;;;;;6.17;4.27;;;;;;;8.86;77.84;97889.63;6292248;28;20253;-45
2023/04/18 06:02:43;;;;;;;4.77;4.27;;;;;;;8.97;77.80;97915.47;6263729;28;20325;-45
2023/04/18 06:05:46;;;;;;;4.40;3.83;;;;;;;8.99;77.18;97908.06;6262170;28;20380;-48
2023/04/18 06:08:48;;;;;;;4.43;3.93;;;;;;;9.07;76.98;97912.25;6261717;28;20340;-49
2023/04/18 06:11:50;;;;;;;4.23;3.83;;;;;;;9.10;76.64;97903.81;6266110;28;20864;-46
2023/04/18 06:14:52;;;;;;;4.37;3.43;;;;;;;9.04;77.85;97916.16;6267310;28;20344;-44
2023/04/18 06:17:54;;;;;;;4.47;3.80;;;;;;;9.09;76.65;97916.28;6264137;28;20231;-46
2023/04/18 06:20:56;;;;;;;4.20;3.80;;;;;;;9.07;77.24;97912.25;6266975;28;20758;-43
2023/04/18 06:24:00;;;;;;;4.83;4.27;;;;;;;9.07;76.85;97915.72;6266022;28;20795;-45
2023/04/18 06:27:02;;;;;;;4.40;3.93;;;;;;;9.11;76.97;97924.03;6265438;28;20631;-47
2023/04/18 06:30:06;;;;;;;4.60;3.90;;;;;;;9.10;76.77;97925.88;6263607;28;20356;-44
2023/04/18 06:33:09;;;;;;;3.77;3.30;;;;;;;9.13;76.49;97932.63;6247707;28;20212;-47
2023/04/18 06:36:11;;;;;;;3.77;3.33;;;;;;;9.29;75.42;97921.31;6263593;28;20736;-49
2023/04/18 06:39:14;;;;;;;3.90;3.10;;;;;;;9.30;75.75;97925.59;6268116;28;20297;-46
2023/04/18 06:42:16;;;;;;;4.90;3.10;;;;;;;9.30;76.02;97931.72;6266685;28;20226;-49
2023/04/18 06:45:21;;;;;;;3.40;3.10;;;;;;;9.27;76.25;97932.19;6257606;28;20238;-45
2023/04/18 06:48:23;;;;;;;3.43;3.13;;;;;;;9.28;76.29;97935.66;6266917;28;20282;-47
2023/04/18 06:51:26;;;;;;;3.43;3.00;;;;;;;9.16;75.90;97916.19;6265699;28;20915;-44
2023/04/18 06:54:28;;;;;;;3.37;3.07;;;;;;;8.66;75.93;97820.84;6267705;28;20237;-47
2023/04/18 06:57:30;;;;;;;4.60;3.20;;;;;;;9.34;75.41;97928.63;6269989;28;20598;-47
2023/04/18 07:00:32;;;;;;;3.10;2.80;;;;;;;9.34;75.81;97939.25;6266025;28;20269;-44
2023/04/18 07:03:34;;;;;;;2.90;2.57;;;;;;;9.34;75.45;97949.88;6289072;28;20233;-48
2023/04/18 07:06:36;;;;;;;2.93;2.63;;;;;;;9.03;75.99;97907.38;6294743;28;20694;-46
2023/04/18 07:09:39;;;;;;;2.87;2.57;;;;;;;9.11;76.30;97918.72;6293822;28;20241;-47
2023/04/18 07:12:41;;;;;;;2.50;2.30;;;;;;;9.29;76.48;97956.69;6272439;28;20224;-49
2023/04/18 07:15:43;;;;;;;2.77;2.57;;;;;;;9.37;75.74;97947.59;6294657;28;20323;-45
2023/04/18 07:18:45;;;;;;;2.50;2.13;;;;;;;9.31;76.09;97937.88;6294158;28;20231;-47
2023/04/18 07:21:47;;;;;;;2.67;2.23;;;;;;;9.44;75.39;97948.28;6276609;28;20229;-46
2023/04/18 07:24:49;;;;;;;4.23;2.77;;;;;;;9.43;75.57;97948.53;6294498;28;20607;-46
2023/04/18 07:27:51;;;;;;;3.43;2.43;;;;;;;9.44;75.53;97955.47;6293099;28;20251;-45
2023/04/18 07:30:55;;;;;;;3.00;2.43;;;;;;;9.44;76.07;97953.63;6292934;28;20295;-43
2023/04/18 07:33:57;;;;;;;4.37;2.37;;;;;;;9.43;76.02;97959.97;6293037;28;20234;-45
2023/04/18 07:37:00;;;;;;;2.30;2.10;;;;;;;9.09;75.90;97899.53;6292138;28;20605;-47
2023/04/18 07:40:03;;;;;;;3.27;2.13;;;;;;;9.44;75.19;97937.66;6293278;28;20368;-43
2023/04/18 07:43:05;;;;;;;3.30;2.23;;;;;;;9.52;74.57;97955.16;6286539;28;20237;-47
2023/04/18 07:46:07;;;;;;;2.80;2.50;;;;;;;9.38;74.99;97938.56;6293508;28;20956;-47
2023/04/18 07:49:09;;;;;;;2.40;2.20;;;;;;;9.45;75.75;97962.41;6292846;28;20397;-47
2023/04/18 07:52:11;;;;;;;2.67;2.33;;;;;;;9.52;74.92;97961.28;6293638;28;20240;-45
2023/04/18 07:55:13;;;;;;;2.50;2.30;;;;;;;9.48;75.05;97967.28;6293894;28;20233;-46
2023/04/18 07:58:16;;;;;;;3.10;2.70;;;;;;;9.61;74.83;97964.41;6292315;28;20279;-47
2023/04/18 08:01:19;;;;;;;3.67;2.10;;;;;;;9.45;75.97;97973.03;6275188;28;20462;-45
2023/04/18 08:04:22;;;;;;;4.47;3.00;;;;;;;9.46;75.68;97969.38;6291728;28;20659;-47
2023/04/18 08:07:24;;;;;;;3.17;2.77;;;;;;;9.47;75.77;97971.78;6293397;28;20233;-45
2023/04/18 08:10:26;;;;;;;2.80;2.47;;;;;;;8.85;76.20;97877.41;6286672;28;20648;-46
2023/04/18 08:13:29;;;;;;;3.27;2.97;;;;;;;9.47;75.80;97977.09;6293760;28;20316;-46
2023/04/18 08:16:31;;;;;;;3.43;3.13;;;;;;;9.57;75.52;97974.69;6295183;28;20702;-47
2023/04/18 08:19:33;;;;;;;4.40;3.30;;;;;;;9.58;75.05;97975.50;6292631;28;20572;-45
2023/04/18 08:22:35;;;;;;;3.57;3.27;;;;;;;9.52;75.41;97976.44;6292805;28;20233;-48
2023/04/18 08:25:57;;;;;;;3.33;2.97;;;;;;;9.61;75.83;97976.91;6288623;28;20260;-49
2023/04/18 08:28:59;;;;;;;6.80;3.77;;;;;;;9.65;74.73;97980.72;6291067;28;20230;-49
2023/04/18 08:32:01;;;;;;;4.13;3.60;;;;;;;9.50;75.54;97973.16;6293975;28;20706;-48
2023/04/18 08:35:04;;;;;;;5.20;3.77;;;;;;;9.53;74.87;97981.50;6290612;28;20223;-43
2023/04/18 08:38:06;;;;;;;4.43;3.73;;;;;;;9.70;73.98;97981.66;6290580;28;20633;-44
2023/04/18 08:41:08;;;;;;;4.23;3.70;;;;;;;9.42;74.78;97958.34;6293056;28;20354;-45
2023/04/18 08:44:11;;;;;;;3.80;3.10;;;;;;;9.53;74.81;97994.00;6282228;28;20242;-47
2023/04/18 08:47:13;;;;;;;6.57;3.97;;;;;;;9.53;75.07;97994.81;6275118;28;20316;-44
2023/04/18 08:50:16;;;;;;;3.67;3.37;;;;;;;9.55;75.00;97997.22;6291754;28;20223;-47
2023/04/18 08:53:18;;;;;;;6.53;4.30;;;;;;;9.60;75.06;97996.53;6290986;28;20301;-47
2023/04/18 08:56:24;;;;;;;6.00;3.93;;;;;;;9.65;74.93;97996.69;6293048;28;20229;-46
2023/04/18 08:59:26;;;;;;;4.93;4.40;;;;;;;9.68;73.95;97993.56;6294687;28;20927;-45
2023/04/18 09:02:37;;;;;;;4.10;3.70;;;;;;;9.64;74.41;97992.41;6292002;28;20234;-44
2023/04/18 09:05:40;;;;;;;4.70;3.60;;;;;;;9.76;74.28;97995.91;6290792;28;20222;-46
2023/04/18 09:08:53;;;;;;;5.33;4.07;;;;;;;9.75;73.95;98011.06;6292814;28;20230;-46
2023/04/18 09:12:17;;;;;;;5.13;3.97;;;;;;;9.67;73.88;97994.63;6292593;28;20246;-46
2023/04/18 09:15:22;;;;;;;4.30;3.83;;;;;;;9.96;72.66;97993.75;6289413;28;20232;-44
2023/04/18 09:18:24;;;;;;;5.03;4.00;;;;;;;9.55;73.60;97958.13;6286716;28;20231;-43
2023/04/18 09:21:28;;;;;;;5.57;4.60;;;;;;;9.65;73.18;97970.06;6291412;28;20316;-46
2023/04/18 09:24:31;;;;;;;5.77;3.67;;;;;;;9.88;73.60;98003.91;6273810;28;20713;-45
2023/04/18 09:27:34;;;;;;;4.60;4.13;;;;;;;9.86;73.22;98004.16;6289056;28;20239;-44
2023/04/18 09:30:38;;;;;;;5.07;4.10;;;;;;;9.94;72.87;97998.47;6290964;28;20232;-46
2023/04/18 09:33:55;;;;;;;4.77;4.17;;;;;;;10.01;72.58;97996.53;6256047;28;20228;-47
2023/04/18 09:37:06;;;;;;;4.17;3.77;;;;;;;10.21;72.05;98008.69;6290840;28;20242;-44
2023/04/18 09:40:19;;;;;;;5.73;4.67;;;;;;;10.36;70.94;98003.75;6273172;28;20247;-44
2023/04/18 09:43:21;;;;;;;7.87;5.77;;;;;;;10.44;70.98;98000.75;6286543;28;20239;-45
2023/04/18 09:46:24;;;;;;;5.43;4.67;;;;;;;10.42;70.46;98000.13;6272300;28;20239;-43
2023/04/18 09:49:26;;;;;;;6.73;4.93;;;;;;;10.50;70.22;98002.47;6289118;28;20305;-45
2023/04/18 09:52:39;;;;;;;5.73;4.30;;;;;;;10.59;69.86;98006.41;6290305;28;20325;-45
2023/04/18 09:55:41;;;;;;;5.17;4.67;;;;;;;10.47;70.51;98010.91;6302504;28;20239;-47
2023/04/18 09:58:46;;;;;;;5.23;4.73;;;;;;;10.39;71.17;98005.09;6290565;28;20967;-44
2023/04/18 10:01:49;;;;;;;7.27;4.80;;;;;;;10.39;70.46;98005.91;6304910;28;20328;-49
2023/04/18 10:04:54;;;;;;;9.27;5.00;;;;;;;10.29;70.56;97993.19;6285351;28;20259;-46
2023/04/18 10:07:57;;;;;;;5.77;5.27;;;;;;;10.48;69.53;98009.84;6290322;28;20231;-48
2023/04/18 10:11:00;;;;;;;6.53;5.10;;;;;;;10.52;70.34;98016.34;6289630;28;20601;-45
2023/04/18 10:14:06;;;;;;;5.43;4.87;;;;;;;10.68;69.68;98011.34;6290635;28;20236;-48
2023/04/18 10:17:09;;;;;;;5.70;4.77;;;;;;;10.81;68.83;98013.75;6282291;28;20241;-43
2023/04/18 10:20:18;;;;;;;5.13;4.63;;;;;;;10.90;68.91;97998.22;6291264;28;20698;-47
2023/04/18 10:23:33;;;;;;;5.67;4.87;;;;;;;11.01;67.75;98002.69;6290822;28;20253;-48
2023/04/18 10:26:49;;;;;;;5.37;4.87;;;;;;;11.06;68.42;98005.47;6287099;28;20699;-47
2023/04/18 10:29:53;;;;;;;5.40;4.80;;;;;;;11.03;67.81;98012.09;6284841;28;20647;-49
2023/04/18 10:32:55;;;;;;;6.10;4.70;;;;;;;10.89;69.01;98013.41;6287410;28;20354;-49
2023/04/18 10:36:19;;;;;;;5.67;5.17;;;;;;;10.81;69.12;98013.75;6288333;28;20603;-49
2023/04/18 10:39:23;;;;;;;5.70;5.10;;;;;;;10.80;69.00;98017.47;6287639;28;20227;-47
2023/04/18 10:42:57;;;;;;;5.13;4.63;;;;;;;10.87;69.34;98015.47;6290623;28;20241;-47
2023/04/18 10:46:10;;;;;;;7.70;5.33;;;;;;;10.82;69.24;98013.53;6188538;28;20240;-47
2023/04/18 10:49:31;;;;;;;5.57;4.80;;;;;;;10.83;69.15;98025.00;6185598;28;20598;-45
2023/04/18 10:52:36;;;;;;;5.90;5.27;;;;;;;10.70;68.41;98014.59;6188321;28;20244;-44
2023/04/18 10:55:43;;;;;;;5.50;5.00;;;;;;;10.75;69.06;98018.19;6184269;28;20278;-44
2023/04/18 10:58:50;;;;;;;6.83;4.90;;;;;;;10.68;68.32;97988.16;6188864;28;20861;-45
2023/04/18 11:02:03;;;;;;;7.97;6.23;;;;;;;10.72;68.59;98010.63;6188182;28;20379;-44
2023/04/18 11:05:07;;;;;;;5.80;5.20;;;;;;;10.73;68.96;98009.59;6188295;28;20798;-46
2023/04/18 11:08:27;;;;;;;7.53;5.37;;;;;;;10.94;68.44;97997.53;6187880;28;20266;-44
2023/04/18 11:11:29;;;;;;;8.37;5.70;;;;;;;11.04;68.06;97973.72;6184810;28;20319;-44
2023/04/18 11:14:47;;;;;;;6.23;5.63;;;;;;;11.23;67.10;97973.50;6188356;28;20233;-44
2023/04/18 11:18:03;;;;;;;6.97;6.13;;;;;;;11.43;67.62;97997.09;6188445;28;20244;-46
2023/04/18 11:21:05;;;;;;;6.20;5.63;;;;;;;11.64;66.52;97991.06;6227474;28;20269;-48
2023/04/18 11:24:07;;;;;;;6.50;5.60;;;;;;;11.72;65.85;98003.19;6289745;28;20689;-48
2023/04/18 11:27:11;;;;;;;6.97;6.27;;;;;;;11.81;65.03;98004.44;6287101;28;20996;-46
2023/04/18 11:30:14;;;;;;;7.33;6.27;;;;;;;11.61;65.30;98010.22;6289693;28;20582;-49
2023/04/18 11:33:16;;;;;;;7.30;6.60;;;;;;;11.71;66.52;98006.94;6289089;28;20217;-49
2023/04/18 11:36:18;;;;;;;7.10;6.27;;;;;;;11.65;67.07;97999.88;6282956;28;20713;-50
2023/04/18 11:39:21;;;;;;;7.77;6.50;;;;;;;11.78;65.55;98004.94;6273914;28;20284;-46
2023/04/18 11:42:29;;;;;;;6.83;6.20;;;;;;;11.70;66.02;98007.97;6293358;28;20230;-47
2023/04/18 11:45:32;;;;;;;6.70;6.00;;;;;;;11.69;66.77;98004.50;6294452;28;20233;-45
2023/04/18 11:48:39;;;;;;;6.80;5.93;;;;;;;11.92;65.45;98006.28;6293541;28;20263;-44
2023/04/18 11:51:45;;;;;;;7.03;6.10;;;;;;;11.27;64.55;97906.13;6289991;28;20230;-44
2023/04/18 11:54:47;;;;;;;6.80;6.20;;;;;;;11.86;65.51;98009.88;6291843;28;20594;-44
2023/04/18 11:57:59;;;;;;;5.97;5.47;;;;;;;11.76;65.67;98012.34;6288703;28;20243;-45
2023/04/18 12:01:17;;;;;;;6.03;5.43;;;;;;;11.71;65.46;98010.41;6292760;28;20249;-45
2023/04/18 12:04:19;;;;;;;6.50;5.50;;;;;;;11.58;67.48;98013.41;6291356;28;20260;-46
2023/04/18 12:07:32;;;;;;;6.47;5.83;;;;;;;11.35;66.22;97977.75;6293190;28;20236;-45
2023/04/18 12:10:37;;;;;;;7.50;5.83;;;;;;;11.33;68.66;98011.06;6288842;28;20787;-44
2023/04/18 12:13:39;;;;;;;6.73;6.03;;;;;;;11.54;67.24;98017.59;6275511;28;20244;-45
2023/04/18 12:16:41;;;;;;;6.33;5.60;;;;;;;11.29;67.05;98009.94;6293612;28;20313;-46
2023/04/18 12:19:46;;;;;;;7.40;6.70;;;;;;;11.33;68.08;98016.41;6294813;28;20244;-47
2023/04/18 12:22:53;;;;;;;6.73;6.00;;;;;;;11.32;67.73;98020.09;6270351;28;20222;-45
2023/04/18 12:26:00;;;;;;;6.80;6.20;;;;;;;11.46;66.69;98020.63;6292708;28;20245;-44
2023/04/18 12:29:02;;;;;;;6.77;6.10;;;;;;;11.36;67.15;98016.72;6292680;28;20236;-44
2023/04/18 12:32:04;;;;;;;8.50;6.40;;;;;;;11.34;67.95;98018.03;6288826;28;20238;-44
2023/04/18 12:35:07;;;;;;;6.57;5.47;;;;;;;11.45;68.65;98027.03;6308846;28;20225;-46
2023/04/18 12:38:09;;;;;;;8.17;6.07;;;;;;;11.36;69.24;98022.06;6290531;28;20324;-45
2023/04/18 12:41:11;;;;;;;7.23;6.37;;;;;;;11.35;69.33;98033.78;6273882;28;20232;-46
2023/04/18 12:44:15;;;;;;;7.10;6.40;;;;;;;11.27;68.96;98025.34;6292316;28;20237;-45
2023/04/18 12:47:17;;;;;;;7.60;6.10;;;;;;;11.14;68.57;98044.28;6288642;28;20237;-46
2023/04/18 12:50:24;;;;;;;6.60;5.77;;;;;;;11.06;69.73;98030.28;6292314;28;20229;-48
2023/04/18 12:53:26;;;;;;;6.27;5.67;;;;;;;11.12;69.41;98023.19;6291846;28;20237;-44
2023/04/18 12:56:29;;;;;;;6.00;5.50;;;;;;;11.16;69.91;98028.84;6273496;28;20236;-45
2023/04/18 12:59:31;;;;;;;5.70;5.07;;;;;;;10.93;69.15;97990.53;6291848;28;21033;-45
2023/04/18 13:02:35;;;;;;;6.97;5.30;;;;;;;11.22;69.30;98030.56;6291561;28;20233;-46
2023/04/18 13:05:38;;;;;;;6.30;5.23;;;;;;;11.11;70.47;98024.22;6292524;28;20238;-47
2023/04/18 13:08:41;;;;;;;6.00;5.40;;;;;;;11.11;69.68;98032.22;6291824;28;20814;-46
2023/04/18 13:11:43;;;;;;;5.60;4.87;;;;;;;11.09;70.93;98029.81;6293016;28;20233;-47
2023/04/18 13:14:45;;;;;;;5.30;4.80;;;;;;;11.10;70.71;98026.09;6291649;28;20229;-45
2023/04/18 13:17:48;;;;;;;5.23;4.73;;;;;;;11.03;71.90;98028.09;6291087;28;20237;-46
2023/04/18 13:20:51;;;;;;;5.30;4.80;;;;;;;11.07;71.28;98023.88;6289038;28;20237;-47
2023/04/18 13:23:53;;;;;;;6.40;5.20;;;;;;;10.98;72.98;98022.63;6286579;28;20289;-48
2023/04/18 13:26:55;;;;;;;6.70;5.30;;;;;;;10.85;73.54;98026.38;6290926;28;20236;-45
2023/04/18 13:29:57;;;;;;;6.13;5.33;;;;;;;10.65;75.48;98014.50;6289041;28;20754;-44
2023/04/18 13:32:59;;;;;;;7.33;6.20;;;;;;;10.69;76.11;98027.13;6292292;28;20229;-48
2023/04/18 13:36:02;;;;;;;6.37;5.43;;;;;;;10.61;77.42;98019.47;6288148;28;20603;-45
2023/04/18 13:39:04;;;;;;;6.40;5.80;;;;;;;10.55;77.63;98026.53;6286850;28;20325;-46
2023/04/18 13:42:06;;;;;;;6.07;5.33;;;;;;;10.45;77.20;98017.53;6287350;28;20208;-46
2023/04/18 13:45:09;;;;;;;7.60;6.00;;;;;;;10.36;77.79;98029.56;6292027;28;20298;-47
2023/04/18 13:48:11;;;;;;;6.03;5.50;;;;;;;10.30;77.00;98016.13;6293164;28;20269;-49
2023/04/18 13:51:16;;;;;;;5.53;5.03;;;;;;;10.28;77.95;98015.53;6287194;28;20213;-46
2023/04/18 13:54:19;;;;;;;6.10;5.50;;;;;;;10.31;76.96;98019.59;6290728;28;20218;-45
2023/04/18 13:57:21;;;;;;;5.67;5.17;;;;;;;10.33;76.79;98015.66;6292697;28;20242;-45
2023/04/18 14:00:24;;;;;;;5.63;5.10;;;;;;;10.30;77.82;98020.66;6291745;28;20241;-45
2023/04/18 14:03:26;;;;;;;5.43;4.87;;;;;;;10.24;77.12;98018.88;6289078;28;20250;-49
2023/04/18 14:06:31;;;;;;;6.30;5.43;;;;;;;10.41;76.00;98027.00;6290166;28;20240;-48
2023/04/18 14:09:33;;;;;;;6.77;5.23;;;;;;;10.43;76.31;98027.56;6290739;28;20604;-46
2023/04/18 14:12:35;;;;;;;5.70;5.20;;;;;;;10.24;75.42;97987.75;6289948;28;20229;-46
2023/04/18 14:15:37;;;;;;;5.07;4.50;;;;;;;10.56;74.83;98028.16;6292220;28;20852;-47
2023/04/18 14:18:40;;;;;;;5.20;4.67;;;;;;;10.42;75.13;98010.78;6268799;28;20243;-46
2023/04/18 14:21:41;;;;;;;5.87;5.27;;;;;;;10.51;75.09;98028.03;6290365;28;20671;-45
2023/04/18 14:24:44;;;;;;;5.13;4.63;;;;;;;10.37;75.71;98037.31;6289286;28;20236;-46
2023/04/18 14:27:47;;;;;;;5.37;4.30;;;;;;;10.07;76.05;97989.47;6288448;28;20293;-47
2023/04/18 14:30:50;;;;;;;5.27;4.13;;;;;;;10.29;76.53;98035.78;6286431;28;20237;-45